createdAt,value
2022-12-19T00:00:04.515Z,98066.88
2022-12-19T00:03:14.381Z,98046.16
2022-12-19T00:06:17.796Z,98048.22
2022-12-19T00:09:19.366Z,98041.38
2022-12-19T00:12:20.885Z,98030.41
2022-12-19T00:15:22.537Z,98021.56
2022-12-19T00:18:24.013Z,98032.81
2022-12-19T00:21:30.478Z,98033.34
2022-12-19T00:24:32.063Z,98039.50
2022-12-19T00:27:36.711Z,98023.91
2022-12-19T00:30:38.178Z,98007.34
2022-12-19T00:33:40.646Z,98021.75
2022-12-19T00:36:46.615Z,98023.03
2022-12-19T00:39:48.103Z,98022.03
2022-12-19T00:42:53.506Z,98016.72
2022-12-19T00:45:55.471Z,98018.09
2022-12-19T00:48:58.775Z,98023.31
2022-12-19T00:52:00.227Z,98018.75
2022-12-19T00:55:01.752Z,98014.94
2022-12-19T00:58:05.234Z,98007.84
2022-12-19T01:01:09.158Z,98012.75
2022-12-19T01:04:31.711Z,98004.22
2022-12-19T01:07:35.504Z,98014.63
2022-12-19T01:10:37.417Z,98018.19
2022-12-19T01:13:42.059Z,98009.31
2022-12-19T01:16:44.000Z,98006.28
2022-12-19T01:19:45.654Z,98014.84
2022-12-19T01:22:47.583Z,98004.66
2022-12-19T01:25:53.240Z,98013.31
2022-12-19T01:28:54.972Z,97999.47
2022-12-19T01:31:56.541Z,98010.34
2022-12-19T01:34:58.240Z,98031.81
2022-12-19T01:38:07.613Z,98034.19
2022-12-19T01:41:10.640Z,98036.44
2022-12-19T01:44:12.237Z,98036.63
2022-12-19T01:47:13.897Z,98039.50
2022-12-19T01:50:29.587Z,98026.03
2022-12-19T01:53:44.689Z,98028.66
2022-12-19T01:56:53.463Z,98042.22
2022-12-19T01:59:59.236Z,98042.56
2022-12-19T02:03:08.450Z,98044.75
2022-12-19T02:06:15.833Z,98048.31
2022-12-19T02:09:17.530Z,98031.22
2022-12-19T02:12:19.405Z,98030.03
2022-12-19T02:15:23.680Z,98039.69
2022-12-19T02:18:41.550Z,98042.06
2022-12-19T02:21:57.623Z,98041.13
2022-12-19T02:25:18.197Z,98042.91
2022-12-19T02:28:58.024Z,98048.50
2022-12-19T02:32:12.120Z,98037.72
2022-12-19T02:35:19.844Z,98044.47
2022-12-19T02:38:44.768Z,98029.13
2022-12-19T02:41:57.574Z,98043.97
2022-12-19T02:45:05.289Z,98034.78
2022-12-19T02:48:09.155Z,98038.53
2022-12-19T02:51:12.324Z,98035.47
2022-12-19T02:54:13.942Z,98039.38
2022-12-19T02:57:58.685Z,98052.56
2022-12-19T03:01:06.778Z,98034.34
2022-12-19T03:04:15.552Z,98039.19
2022-12-19T03:07:32.301Z,98037.84
2022-12-19T03:10:56.732Z,98031.91
2022-12-19T03:14:12.362Z,98032.28
2022-12-19T03:17:14.841Z,98039.72
2022-12-19T03:20:28.752Z,98039.81
2022-12-19T03:23:31.294Z,98035.63
2022-12-19T03:26:37.644Z,98031.91
2022-12-19T03:30:03.627Z,98028.44
2022-12-19T03:33:07.817Z,98026.47
2022-12-19T03:36:12.853Z,98024.81
2022-12-19T03:39:16.579Z,98014.06
2022-12-19T03:42:39.310Z,98016.16
2022-12-19T03:45:48.202Z,97999.38
2022-12-19T03:48:54.560Z,98012.72
2022-12-19T03:52:10.700Z,98004.72
2022-12-19T03:55:15.525Z,98017.34
2022-12-19T03:58:24.677Z,97999.09
2022-12-19T04:01:28.610Z,97995.34
2022-12-19T04:04:34.553Z,98005.44
2022-12-19T04:07:39.133Z,98005.16
2022-12-19T04:10:55.710Z,98000.56
2022-12-19T04:14:02.796Z,97996.13
2022-12-19T04:17:08.539Z,98009.97
2022-12-19T04:20:13.415Z,98010.06
2022-12-19T04:23:20.721Z,97997.94
2022-12-19T04:26:24.512Z,97976.59
2022-12-19T04:29:30.932Z,97988.38
2022-12-19T04:32:35.728Z,97979.53
2022-12-19T04:35:38.098Z,97969.19
2022-12-19T04:38:39.809Z,97982.13
2022-12-19T04:41:41.337Z,97979.44
2022-12-19T04:44:42.822Z,97998.09
2022-12-19T04:47:44.305Z,97987.06
2022-12-19T04:50:45.735Z,97997.97
2022-12-19T04:53:47.333Z,97981.97
2022-12-19T04:56:48.797Z,97972.97
2022-12-19T04:59:50.281Z,97982.25
2022-12-19T05:02:52.040Z,97987.56
2022-12-19T05:05:53.957Z,97972.88
2022-12-19T05:08:57.747Z,97973.94
2022-12-19T05:11:59.243Z,97982.47
2022-12-19T05:15:01.435Z,97970.81
2022-12-19T05:18:03.066Z,97967.97
2022-12-19T05:21:05.317Z,97984.66
2022-12-19T05:24:07.182Z,97977.16
2022-12-19T05:27:08.799Z,97982.38
2022-12-19T05:30:10.808Z,97977.03
2022-12-19T05:33:12.384Z,97972.78
2022-12-19T05:36:15.927Z,97964.97
2022-12-19T05:39:17.549Z,97966.84
2022-12-19T05:42:19.095Z,97971.63
2022-12-19T05:45:20.711Z,97966.31
2022-12-19T05:48:22.568Z,97952.13
2022-12-19T05:51:24.181Z,97971.94
2022-12-19T05:54:25.798Z,97971.53
2022-12-19T05:57:27.328Z,97964.72
2022-12-19T06:01:30.306Z,97972.25
2022-12-19T06:04:32.084Z,97961.22
2022-12-19T06:07:34.885Z,97969.22
2022-12-19T06:10:36.585Z,97949.94
2022-12-19T06:13:38.798Z,97958.19
2022-12-19T06:16:40.618Z,97950.34
2022-12-19T06:19:42.233Z,97941.41
2022-12-19T06:22:43.877Z,97951.84
2022-12-19T06:25:45.526Z,97948.00
2022-12-19T06:28:52.246Z,97950.69
2022-12-19T06:31:53.902Z,97934.22
2022-12-19T06:35:03.948Z,97935.03
2022-12-19T06:38:06.351Z,97948.38
2022-12-19T06:41:28.398Z,97930.66
2022-12-19T06:44:31.828Z,97935.56
2022-12-19T06:47:33.397Z,97921.28
2022-12-19T06:50:35.922Z,97925.16
2022-12-19T06:53:37.535Z,97919.69
2022-12-19T06:56:41.510Z,97917.34
2022-12-19T06:59:43.464Z,97927.44
2022-12-19T07:02:48.464Z,97914.59
2022-12-19T07:05:50.534Z,97917.00
2022-12-19T07:08:52.936Z,97923.47
2022-12-19T07:11:54.474Z,97929.41
2022-12-19T07:14:56.022Z,97944.84
2022-12-19T07:17:59.521Z,97937.84
2022-12-19T07:21:02.262Z,97950.88
2022-12-19T07:24:04.518Z,97947.13
2022-12-19T07:27:09.271Z,97958.06
2022-12-19T07:30:11.727Z,97946.41
2022-12-19T07:33:19.743Z,97972.56
2022-12-19T07:36:22.941Z,97962.78
2022-12-19T07:39:24.822Z,97965.63
2022-12-19T07:42:32.137Z,97973.09
2022-12-19T07:45:37.924Z,97965.72
2022-12-19T07:48:40.466Z,97970.31
2022-12-19T07:51:42.057Z,97981.97
2022-12-19T07:54:43.629Z,97981.66
2022-12-19T07:57:45.137Z,97993.16
2022-12-19T08:00:54.026Z,97992.94
2022-12-19T08:03:55.923Z,98000.13
2022-12-19T08:06:57.548Z,98001.06
2022-12-19T08:09:59.088Z,97998.88
2022-12-19T08:13:00.669Z,97994.91
2022-12-19T08:16:02.347Z,97990.81
2022-12-19T08:19:04.150Z,97989.28
2022-12-19T08:22:05.635Z,97994.38
2022-12-19T08:25:07.916Z,97992.47
2022-12-19T08:28:10.284Z,97998.38
2022-12-19T08:31:15.230Z,97995.22
2022-12-19T08:34:16.777Z,97992.09
2022-12-19T08:37:18.360Z,97985.19
2022-12-19T08:40:20.085Z,97990.22
2022-12-19T08:43:21.795Z,97984.09
2022-12-19T08:46:23.782Z,97993.25
2022-12-19T08:49:25.426Z,97980.38
2022-12-19T08:52:27.025Z,97980.78
2022-12-19T08:55:28.641Z,97972.03
2022-12-19T08:58:31.412Z,97975.00
2022-12-19T09:01:33.066Z,97976.34
2022-12-19T09:06:00.193Z,97970.66
2022-12-19T09:07:56.211Z,97986.38
2022-12-19T09:11:02.665Z,97982.06
2022-12-19T09:14:05.134Z,97980.53
2022-12-19T09:17:06.948Z,97989.13
2022-12-19T09:20:10.841Z,97986.97
2022-12-19T09:23:12.431Z,97986.50
2022-12-19T09:26:14.064Z,97986.00
2022-12-19T09:29:20.498Z,97991.13
2022-12-19T09:32:23.112Z,98000.06
2022-12-19T09:35:30.049Z,97992.81
2022-12-19T09:38:33.776Z,97978.78
2022-12-19T09:41:57.957Z,97977.72
2022-12-19T09:45:14.499Z,97974.72
2022-12-19T09:48:23.939Z,97963.16
2022-12-19T09:51:41.449Z,97959.81
2022-12-19T09:54:57.215Z,97955.03
2022-12-19T09:58:12.040Z,97963.22
2022-12-19T10:01:24.647Z,97944.34
2022-12-19T10:04:29.767Z,97952.56
2022-12-19T10:08:01.345Z,97948.91
2022-12-19T10:12:38.374Z,97934.47
2022-12-19T10:14:47.688Z,97939.63
2022-12-19T10:17:58.421Z,97941.56
2022-12-19T10:21:20.102Z,97938.56
2022-12-19T10:25:09.217Z,97954.69
2022-12-19T10:28:11.228Z,97948.91
2022-12-19T10:31:27.720Z,97933.41
2022-12-19T10:34:41.081Z,97934.78
2022-12-19T10:38:18.104Z,97913.53
2022-12-19T10:41:28.978Z,97908.22
2022-12-19T10:44:36.064Z,97917.44
2022-12-19T10:47:37.780Z,97909.81
2022-12-19T10:50:39.376Z,97905.94
2022-12-19T10:53:41.021Z,97905.63
2022-12-19T10:56:45.606Z,97895.41
2022-12-19T11:00:00.695Z,97899.19
2022-12-19T11:03:19.262Z,97885.06
2022-12-19T11:06:48.514Z,97884.09
2022-12-19T11:10:05.336Z,97883.09
2022-12-19T11:19:27.543Z,97883.34
2022-12-19T11:22:05.349Z,97861.53
2022-12-19T11:29:18.963Z,97869.41
2022-12-19T11:29:42.537Z,97872.34
2022-12-19T11:30:46.433Z,97878.38
2022-12-19T11:34:50.401Z,97874.94
2022-12-19T11:37:56.205Z,97863.06
2022-12-19T11:41:02.357Z,97858.75
2022-12-19T11:44:19.431Z,97855.56
2022-12-19T11:47:35.849Z,97857.78
2022-12-19T11:50:59.961Z,97852.13
2022-12-19T11:54:20.593Z,97842.69
2022-12-19T11:57:22.347Z,97837.03
2022-12-19T12:00:24.796Z,97838.00
2022-12-19T12:04:01.134Z,97844.78
2022-12-19T12:07:20.470Z,97819.03
2022-12-19T12:14:39.745Z,97847.41
2022-12-19T12:22:40.789Z,97832.28
2022-12-19T12:29:36.606Z,97821.78
2022-12-19T12:31:22.520Z,97826.53
2022-12-19T12:31:42.134Z,97807.72
2022-12-19T12:31:49.684Z,97798.44
2022-12-19T12:35:50.921Z,97789.28
2022-12-19T12:39:57.885Z,97790.41
2022-12-19T12:43:31.782Z,97791.69
2022-12-19T12:46:40.798Z,97793.78
2022-12-19T12:49:46.078Z,97799.75
2022-12-19T12:52:54.869Z,97793.66
2022-12-19T12:55:58.978Z,97798.53
2022-12-19T12:59:00.793Z,97798.25
2022-12-19T13:02:18.424Z,97787.75
2022-12-19T13:05:32.200Z,97800.09
2022-12-19T13:08:45.982Z,97797.59
2022-12-19T13:12:09.662Z,97802.00
2022-12-19T13:15:29.859Z,97805.31
2022-12-19T13:18:37.947Z,97804.94
2022-12-19T13:22:04.662Z,97808.09
2022-12-19T13:25:43.972Z,97809.34
2022-12-19T13:28:45.565Z,97815.03
2022-12-19T13:32:08.396Z,97815.13
2022-12-19T13:35:54.336Z,97817.59
2022-12-19T13:39:57.247Z,97826.34
2022-12-19T13:42:28.660Z,97823.03
2022-12-19T13:45:32.818Z,97812.13
2022-12-19T13:48:37.560Z,97830.28
2022-12-19T13:51:47.159Z,97828.75
2022-12-19T13:54:51.664Z,97827.50
2022-12-19T13:57:54.839Z,97832.63
2022-12-19T14:01:01.084Z,97832.06
2022-12-19T14:04:09.266Z,97836.47
2022-12-19T14:07:41.676Z,97837.59
2022-12-19T14:11:31.665Z,97845.00
2022-12-19T14:14:34.258Z,97835.16
2022-12-19T14:17:35.809Z,97826.34
2022-12-19T14:22:04.658Z,97836.41
2022-12-19T14:24:15.397Z,97834.47
2022-12-19T14:28:26.021Z,97823.81
2022-12-19T14:30:43.580Z,97837.75
2022-12-19T14:34:04.714Z,97837.72
2022-12-19T14:39:20.229Z,97822.25
2022-12-19T14:41:09.403Z,97830.06
2022-12-19T14:51:42.905Z,97827.66
2022-12-19T14:53:08.439Z,97812.69
2022-12-19T14:54:34.885Z,97826.00
2022-12-19T14:58:53.612Z,97826.00
2022-12-19T15:01:34.915Z,97816.84
2022-12-19T15:04:50.397Z,97809.56
2022-12-19T15:07:58.901Z,97822.88
2022-12-19T15:11:44.484Z,97819.69
2022-12-19T15:14:58.990Z,97840.44
2022-12-19T15:18:15.987Z,97816.16
2022-12-19T15:21:17.532Z,97812.16
2022-12-19T15:24:46.504Z,97822.44
2022-12-19T15:27:48.229Z,97808.78
2022-12-19T15:30:58.352Z,97807.38
2022-12-19T15:37:22.506Z,97809.66
2022-12-19T15:40:24.154Z,97802.75
2022-12-19T15:44:02.046Z,97791.59
2022-12-19T15:46:49.369Z,97792.16
2022-12-19T15:49:51.138Z,97799.06
2022-12-19T15:52:58.201Z,97790.16
2022-12-19T15:56:01.617Z,97798.13
2022-12-19T15:59:05.166Z,97806.31
2022-12-19T16:02:17.318Z,97806.06
2022-12-19T16:05:21.085Z,97803.47
2022-12-19T16:08:26.201Z,97806.59
2022-12-19T16:11:28.245Z,97814.91
2022-12-19T16:14:29.877Z,97804.91
2022-12-19T16:17:33.883Z,97811.31
2022-12-19T16:20:39.346Z,97801.59
2022-12-19T16:23:40.985Z,97798.03
2022-12-19T16:26:43.033Z,97807.41
2022-12-19T16:29:46.054Z,97803.13
2022-12-19T16:32:48.594Z,97792.53
2022-12-19T16:36:07.731Z,97787.69
2022-12-19T16:39:09.592Z,97786.38
2022-12-19T16:42:16.343Z,97794.69
2022-12-19T16:45:24.647Z,97779.59
2022-12-19T16:48:29.643Z,97780.41
2022-12-19T16:51:31.219Z,97784.94
2022-12-19T16:54:32.765Z,97792.91
2022-12-19T16:57:34.793Z,97793.41
2022-12-19T17:00:37.608Z,97791.59
2022-12-19T17:03:41.939Z,97787.44
2022-12-19T17:06:44.049Z,97795.41
2022-12-19T17:09:45.639Z,97791.81
2022-12-19T17:12:48.037Z,97796.69
2022-12-19T17:15:56.403Z,97799.91
2022-12-19T17:18:59.369Z,97798.22
2022-12-19T17:22:00.857Z,97795.63
2022-12-19T17:25:12.203Z,97793.72
2022-12-19T17:28:13.914Z,97790.41
2022-12-19T17:31:28.299Z,97779.56
2022-12-19T17:34:33.782Z,97790.44
2022-12-19T17:37:35.335Z,97801.34
2022-12-19T17:40:36.848Z,97789.94
2022-12-19T17:43:38.335Z,97804.94
2022-12-19T17:46:40.095Z,97801.72
2022-12-19T17:49:42.064Z,97799.69
2022-12-19T17:52:43.672Z,97803.97
2022-12-19T17:55:45.323Z,97805.97
2022-12-19T17:58:48.021Z,97812.06
2022-12-19T18:01:49.948Z,97804.94
2022-12-19T18:04:52.692Z,97811.34
2022-12-19T18:07:54.994Z,97819.75
2022-12-19T18:11:01.812Z,97817.16
2022-12-19T18:14:03.540Z,97805.28
2022-12-19T18:17:05.495Z,97803.38
2022-12-19T18:20:32.550Z,97802.75
2022-12-19T18:23:34.457Z,97796.00
2022-12-19T18:26:36.133Z,97798.03
2022-12-19T18:29:37.808Z,97799.00
2022-12-19T18:32:39.393Z,97808.25
2022-12-19T18:35:43.611Z,97783.31
2022-12-19T18:38:45.400Z,97786.97
2022-12-19T18:41:47.387Z,97794.38
2022-12-19T18:44:49.093Z,97795.41
2022-12-19T18:47:58.311Z,97792.09
2022-12-19T18:51:01.461Z,97775.47
2022-12-19T18:54:11.935Z,97782.72
2022-12-19T18:57:14.567Z,97785.44
2022-12-19T19:00:22.199Z,97796.38
2022-12-19T19:03:29.386Z,97787.34
2022-12-19T19:06:37.337Z,97785.53
2022-12-19T19:09:39.494Z,97793.50
2022-12-19T19:13:09.997Z,97787.44
2022-12-19T19:16:30.014Z,97789.25
2022-12-19T19:19:31.846Z,97792.78
2022-12-19T19:22:33.819Z,97788.66
2022-12-19T19:25:35.998Z,97779.25
2022-12-19T19:28:39.376Z,97780.69
2022-12-19T19:31:45.798Z,97769.38
2022-12-19T19:34:48.351Z,97765.25
2022-12-19T19:37:52.834Z,97775.59
2022-12-19T19:40:54.382Z,97774.13
2022-12-19T19:43:59.872Z,97764.97
2022-12-19T19:47:01.986Z,97769.50
2022-12-19T19:50:07.724Z,97759.53
2022-12-19T19:53:09.338Z,97763.78
2022-12-19T19:56:10.861Z,97766.19
2022-12-19T19:59:12.611Z,97767.75
2022-12-19T20:02:33.259Z,97778.53
2022-12-19T20:05:38.019Z,97779.50
2022-12-19T20:08:40.877Z,97781.84
2022-12-19T20:11:42.892Z,97770.81
2022-12-19T20:14:44.681Z,97778.31
2022-12-19T20:17:46.358Z,97775.09
2022-12-19T20:20:48.831Z,97791.22
2022-12-19T20:23:50.837Z,97793.97
2022-12-19T20:26:52.600Z,97790.88
2022-12-19T20:29:54.269Z,97787.06
2022-12-19T20:32:55.777Z,97787.06
2022-12-19T20:35:58.381Z,97803.22
2022-12-19T20:38:59.919Z,97807.13
2022-12-19T20:42:01.537Z,97807.00
2022-12-19T20:45:03.639Z,97813.28
2022-12-19T20:48:05.305Z,97809.88
2022-12-19T20:51:07.788Z,97806.06
2022-12-19T20:54:11.498Z,97807.25
2022-12-19T20:57:13.008Z,97804.63
2022-12-19T21:00:15.137Z,97790.38
2022-12-19T21:03:27.794Z,97786.78
2022-12-19T21:06:30.359Z,97777.19
2022-12-19T21:09:32.023Z,97779.94
2022-12-19T21:12:33.658Z,97779.31
2022-12-19T21:15:35.186Z,97780.97
2022-12-19T21:18:39.115Z,97782.88
2022-12-19T21:21:40.773Z,97779.44
2022-12-19T21:24:42.338Z,97790.00
2022-12-19T21:27:43.896Z,97791.31
2022-12-19T21:30:45.518Z,97785.84
2022-12-19T21:33:47.754Z,97792.16
2022-12-19T21:36:49.277Z,97796.81
2022-12-19T21:39:50.849Z,97787.88
2022-12-19T21:42:52.463Z,97804.38
2022-12-19T21:46:04.176Z,97797.28
2022-12-19T21:49:08.412Z,97810.34
2022-12-19T21:52:10.202Z,97803.22
2022-12-19T21:55:11.727Z,97811.88
2022-12-19T21:58:13.328Z,97799.66
2022-12-19T22:01:15.693Z,97792.31
2022-12-19T22:04:23.806Z,97787.91
2022-12-19T22:07:25.385Z,97790.06
2022-12-19T22:10:26.922Z,97780.66
2022-12-19T22:13:29.313Z,97783.16
2022-12-19T22:16:31.755Z,97794.47
2022-12-19T22:19:33.427Z,97794.09
2022-12-19T22:22:34.964Z,97798.25
2022-12-19T22:25:36.688Z,97795.19
2022-12-19T22:28:40.332Z,97792.31
2022-12-19T22:31:42.750Z,97794.91
2022-12-19T22:34:47.279Z,97792.31
2022-12-19T22:37:48.922Z,97789.09
2022-12-19T22:40:50.584Z,97787.56
2022-12-19T22:43:53.089Z,97788.50
2022-12-19T22:46:54.732Z,97793.72
2022-12-19T22:49:56.339Z,97794.44
2022-12-19T22:52:57.958Z,97796.00
2022-12-19T22:56:06.262Z,97791.50
2022-12-19T22:59:08.993Z,97784.47
2022-12-19T23:02:10.691Z,97792.69
2022-12-19T23:05:12.430Z,97791.69
2022-12-19T23:08:13.937Z,97791.09
2022-12-19T23:11:18.998Z,97787.66
2022-12-19T23:14:20.988Z,97782.25
2022-12-19T23:17:22.553Z,97777.75
2022-12-19T23:20:24.035Z,97785.97
2022-12-19T23:23:25.682Z,97782.66
2022-12-19T23:26:29.960Z,97778.59
2022-12-19T23:29:31.553Z,97780.13
2022-12-19T23:32:33.114Z,97781.81
2022-12-19T23:35:34.982Z,97781.91
2022-12-19T23:38:36.643Z,97780.84
2022-12-19T23:41:38.463Z,97780.25
2022-12-19T23:44:40.110Z,97777.75
2022-12-19T23:47:41.691Z,97783.25
2022-12-19T23:50:43.298Z,97774.94
2022-12-19T23:53:45.273Z,97765.19
2022-12-19T23:56:46.921Z,97770.91
2022-12-19T23:59:48.645Z,97769.91
